Latest Coastal Weather Observations for Horn Island

IDQ60701

Issued at 2:32 pm EST Sunday 26 June 2016 (issued every 10 minutes, with the page automatically refreshed every 10 minutes)

About coastal observations | Map of coastal stations | Coastal observations for QLD | Marine services | Other Formats
Station Details ID: 027058 Name: HORN ISLAND Lat: -10.58 Lon: 142.29 Height: 4.0 m
Data from the previous 72 hours. | See also: Recent months at Horn Island
Date/Time
EST
Temp
°C
Wind Pressure Rain since
9am
mm
Weather Cloud Vis
km
Sea
Height
m
Swell
Dir  Spd
kts
Gust
kts
hPa Trend Height
m
Period
s
Dir
26/02:30pm 29.9 ESE 17 23 1009.5 - 0.0 - Partly cloudy 10 - - - -
26/02:00pm 29.5 ESE 15 21 1009.8 - 0.0 - - 10 - - - -
26/01:30pm 29.8 ESE 18 24 1009.9 - 0.0 - - 10 - - - -
26/01:00pm 30.3 ESE 16 23 1010.0 - 0.0 - - 10 - - - -
26/12:30pm 29.8 SE 16 23 1010.3 - 0.0 - - 10 - - - -
26/12:00pm 29.7 ESE 17 23 1010.6 - 0.0 - - 10 - - - -
26/11:30am 29.0 ESE 16 22 1010.9 - 0.0 - - 10 - - - -
26/11:00am 29.7 ESE 14 19 1011.4 - 0.0 - - 10 - - - -
26/10:30am 29.0 ESE 17 22 1011.8 - 0.0 - - 10 - - - -
26/10:00am 28.9 ESE 16 21 1011.9 - 0.0 - - 10 - - - -
26/09:30am 28.6 ESE 13 20 1012.2 - 0.0 - - 10 - - - -
26/09:00am 27.9 SE 14 19 1012.3 - 0.0 - - 10 - - - -
26/08:30am 27.6 SE 11 18 1012.3 - 0.0 - - 10 - - - -
26/08:00am 27.2 SE 10 14 1012.2 - 0.0 - - 10 - - - -
26/07:30am 26.7 SE 11 14 1012.0 - 0.0 - - 10 - - - -
26/07:00am 26.3 SE 10 15 1012.0 - 0.0 - - 10 - - - -
26/06:30am 26.3 SE 9 13 1011.9 - 0.0 - - 10 - - - -
26/06:00am 26.4 ESE 10 14 1011.8 - 0.0 - - 10 - - - -
26/05:30am 26.3 ESE 10 15 1011.8 - 0.0 - - 10 - - - -
26/05:00am 26.5 ESE 12 17 1011.6 - 0.0 - Partly cloudy 10 - - - -
26/04:30am 26.7 SE 11 16 1011.4 - 0.0 - Partly cloudy 10 - - - -
26/04:00am 26.8 ESE 13 17 1011.4 - 0.0 - Partly cloudy 10 - - - -
26/03:30am 26.7 ESE 15 22 1011.4 - 0.0 - Partly cloudy 10 - - - -
26/03:00am 26.8 ESE 14 19 1011.2 - 0.0 - Mostly clear 10 - - - -
26/02:30am 26.8 ESE 13 21 1011.3 - 0.0 - Partly cloudy 10 - - - -
26/02:00am 26.7 ESE 13 19 1011.3 - 0.0 - Partly cloudy 10 - - - -
26/01:30am 26.9 ESE 15 24 1011.6 - 0.0 - Partly cloudy 10 - - - -
26/01:00am 26.7 ESE 13 18 1011.7 - 0.0 - Partly cloudy 10 - - - -
26/12:30am 26.9 ESE 13 19 1012.0 - 0.0 - Partly cloudy 10 - - - -
26/12:00am 26.9 ESE 15 21 1012.1 - 0.0 - Cloudy 10 - - - -
 
Date/Time
EST
Temp
°C
Wind Pressure Rain since
9am
mm
Weather Cloud Vis
km
Sea
Height
m
Swell
Dir  Spd
kts
Gust
kts
hPa Trend Height
m
Period
s
Dir
25/11:30pm 27.0 ESE 14 20 1012.2 - 0.0 - Partly cloudy 10 - - - -
25/11:00pm 27.0 ESE 17 25 1012.2 - 0.0 - Partly cloudy 10 - - - -
25/10:55pm 27.0 SE 15 25 1012.2 - 0.0 - Partly cloudy 10 - - - -
25/10:30pm 26.9 ESE 14 20 1012.1 - 0.0 - Partly cloudy 10 - - - -
25/10:00pm 26.9 ESE 15 21 1012.1 - 0.0 - - 10 - - - -
25/09:30pm 27.0 ESE 15 21 1012.0 - 0.0 - - 10 - - - -
25/09:00pm 27.1 ESE 15 24 1011.9 - 0.0 - - 10 - - - -
25/08:30pm 27.0 ESE 14 20 1011.6 - 0.0 - Partly cloudy 10 - - - -
25/08:00pm 27.0 SE 13 17 1011.2 - 0.0 - Partly cloudy 10 - - - -
25/07:30pm 27.0 SE 14 19 1010.8 - 0.0 - Partly cloudy 10 - - - -
25/07:00pm 27.1 SE 13 21 1010.6 - 0.0 - - 10 - - - -
25/06:30pm 27.1 SE 14 20 1010.5 - 0.0 - - 10 - - - -
25/06:00pm 27.4 SE 14 19 1010.5 - 0.0 - Mostly clear 10 - - - -
25/05:30pm 27.9 ESE 16 23 1010.5 - 0.0 - - 10 - - - -
25/05:00pm 28.4 SE 13 19 1010.4 - 0.0 - - 10 - - - -
25/04:30pm 28.6 ESE 16 23 1010.4 - 0.0 - Partly cloudy 10 - - - -
25/04:00pm 29.1 ESE 16 21 1010.2 - 0.0 - - 10 - - - -
25/03:30pm 29.2 ESE 17 23 1010.1 - 0.0 - - 10 - - - -
25/03:00pm 29.5 ESE 17 24 1010.1 - 0.0 - - 10 - - - -
25/02:30pm 29.3 ESE 19 23 1010.5 - 0.0 - - 10 - - - -
25/02:00pm 29.9 ESE 16 24 1010.7 - 0.0 - - 10 - - - -
25/01:30pm 29.7 ESE 16 21 1011.2 - 0.0 - Partly cloudy 10 - - - -
25/01:00pm 29.3 ESE 18 24 1011.7 - 0.0 - Partly cloudy 10 - - - -
25/12:30pm 29.7 ESE 17 22 1012.0 - 0.0 - Partly cloudy 10 - - - -
25/12:00pm 29.3 ESE 18 23 1012.3 - 0.0 - - 10 - - - -
25/11:30am 29.5 E 17 26 1012.5 - 0.0 - - 10 - - - -
25/11:27am 29.2 ESE 16 26 1012.5 - 0.0 - - 10 - - - -
25/11:00am 29.1 ESE 16 22 1012.7 - 0.0 - Partly cloudy 10 - - - -
25/10:30am 29.0 ESE 18 24 1012.7 - 0.0 - Partly cloudy 10 - - - -
25/10:00am 28.5 ESE 17 24 1012.6 - 0.0 - - 10 - - - -
25/09:30am 28.0 ESE 15 23 1012.6 - 0.0 - - 10 - - - -
25/09:00am 27.7 ESE 15 24 1012.4 - 0.2 - Partly cloudy 10 - - - -
25/08:30am 27.5 ESE 13 19 1012.3 - 0.2 - - 10 - - - -
25/08:00am 27.0 ESE 13 19 1012.1 - 0.2 - - 10 - - - -
25/07:30am 26.7 ESE 14 23 1011.9 - 0.2 - Partly cloudy 10 - - - -
25/07:00am 26.5 ESE 13 19 1011.8 - 0.2 - - 10 - - - -
25/06:30am 26.4 ESE 11 18 1011.4 - 0.2 - - 10 - - - -
25/06:00am 26.2 ESE 12 18 1011.2 - 0.2 - Mostly clear 10 - - - -
25/05:30am 26.1 ESE 11 14 1010.9 - 0.2 - - 10 - - - -
25/05:00am 26.1 SE 12 17 1010.7 - 0.2 - - 10 - - - -
25/04:30am 26.3 SE 13 17 1010.6 - 0.2 - - 10 - - - -
25/04:00am 26.3 SE 12 18 1010.5 - 0.2 - - 10 - - - -
25/03:30am 26.3 SE 12 15 1010.7 - 0.2 - - 10 - - - -
25/03:00am 26.3 ESE 10 14 1010.8 - 0.2 - Mostly clear 10 - - - -
25/02:30am 26.6 ESE 13 18 1010.9 - 0.2 - - 10 - - - -
25/02:00am 26.6 ESE 14 19 1011.1 - 0.2 - - 10 - - - -
25/01:30am 26.5 ESE 12 16 1011.3 - 0.2 - Partly cloudy 10 - - - -
25/01:00am 26.6 ESE 12 16 1011.6 - 0.2 - Partly cloudy 10 - - - -
25/12:30am 26.5 ESE 12 16 1011.6 - 0.2 - - 10 - - - -
25/12:00am 26.4 ESE 10 17 1011.6 - 0.2 - Mostly clear 10 - - - -
 
Date/Time
EST
Temp
°C
Wind Pressure Rain since
9am
mm
Weather Cloud Vis
km
Sea
Height
m
Swell
Dir  Spd
kts
Gust
kts
hPa Trend Height
m
Period
s
Dir
24/11:30pm 26.5 SE 10 17 1011.9 - 0.2 - Partly cloudy 10 - - - -
24/11:00pm 26.5 SE 10 16 1011.9 - 0.2 - Partly cloudy 10 - - - -
24/10:30pm 26.5 SE 9 14 1011.8 - 0.2 - Partly cloudy 10 - - - -
24/10:00pm 26.7 ESE 12 16 1011.9 - 0.2 - - 10 - - - -
24/09:30pm 26.7 SE 12 19 1011.9 - 0.2 - - 10 - - - -
24/09:00pm 26.5 SE 10 15 1011.7 - 0.2 - Mostly clear 10 - - - -
24/08:30pm 26.6 SE 7 11 1011.7 - 0.2 - Partly cloudy 10 - - - -
24/08:00pm 26.7 SE 11 15 1011.4 - 0.2 - - 10 - - - -
24/07:30pm 26.8 SE 10 16 1011.2 - 0.2 - - 10 - - - -
24/07:00pm 27.0 SE 11 15 1010.9 - 0.2 - - 10 - - - -
24/06:30pm 27.2 SE 11 15 1010.8 - 0.2 - - 10 - - - -
24/06:00pm 27.5 SE 13 18 1010.5 - 0.2 - - 10 - - - -
24/05:30pm 27.8 ESE 12 16 1010.4 - 0.2 - - 10 - - - -
24/05:00pm 28.6 ESE 12 18 1010.0 - 0.2 - - 10 - - - -
24/04:30pm 29.2 ESE 13 19 1009.9 - 0.2 - Partly cloudy 10 - - - -
24/04:00pm 29.7 ESE 14 18 1009.7 - 0.2 - Partly cloudy 10 - - - -
24/03:30pm 29.6 E 15 21 1009.8 - 0.2 - - 10 - - - -
24/03:00pm 30.0 E 15 20 1009.7 - 0.2 - - 10 - - - -
24/02:30pm 29.7 ESE 16 20 1009.9 - 0.2 - - 10 - - - -
24/02:00pm 30.0 ESE 15 20 1010.3 - 0.2 - - 10 - - - -
24/01:30pm 29.8 ESE 14 19 1010.9 - 0.2 - - 10 - - - -
24/01:00pm 29.4 ESE 16 21 1011.2 - 0.2 - - 10 - - - -
24/12:30pm 29.8 ESE 16 21 1011.6 - 0.2 - Partly cloudy 10 - - - -
24/12:00pm 29.9 ESE 15 23 1012.1 - 0.2 - - 10 - - - -
24/11:30am 29.7 ESE 14 18 1012.4 - 0.2 - Partly cloudy 10 - - - -
24/11:00am 29.4 ESE 15 20 1012.3 - 0.2 - Partly cloudy 10 - - - -
24/10:30am 29.5 ESE 12 17 1012.3 - 0.0 - Partly cloudy 10 - - - -
24/10:00am 28.8 ESE 12 17 1012.0 - 0.0 - Partly cloudy 10 - - - -
24/09:30am 28.4 ESE 11 16 1011.9 - 0.0 - - 10 - - - -
24/09:00am 28.1 SE 12 16 1011.5 - 2.8 - - 10 - - - -
24/08:30am 27.5 SE 9 13 1011.3 - 2.8 - - 10 - - - -
24/08:00am 27.0 SE 8 12 1011.0 - 2.8 - - 10 - - - -
24/07:30am 26.5 SE 7 10 1010.9 - 2.8 - Partly cloudy 10 - - - -
24/07:00am 26.1 SE 6 8 1010.7 - 2.8 - Partly cloudy 10 - - - -
24/06:30am 26.2 SE 7 10 1010.0 - 2.8 - - 10 - - - -
24/06:00am 26.2 ESE 8 11 1009.8 - 2.8 - - 10 - - - -
24/05:30am 26.2 SE 8 11 1009.7 - 2.8 - Partly cloudy 10 - - - -
24/05:00am 26.2 SE 4 6 1009.8 - 2.8 - Partly cloudy 8 - - - -
24/04:30am 26.4 SE 6 9 1009.6 - 2.8 - Partly cloudy 9 - - - -
24/04:08am 26.7 SE 9 13 1009.6 - 2.8 - Partly cloudy 10 - - - -
24/04:00am 26.9 ESE 10 13 1009.5 - 2.8 - Partly cloudy 10 - - - -
24/03:34am 26.8 SE 8 11 1009.6 - 2.8 - Partly cloudy 9 - - - -
24/03:30am 26.8 SE 9 13 1009.5 - 2.8 - Partly cloudy 10 - - - -
24/03:00am 26.5 SE 7 9 1009.8 - 2.8 - Cloudy 9 - - - -
24/02:30am 26.6 ESE 8 13 1009.8 - 2.8 - Partly cloudy 9 - - - -
24/02:00am 26.7 ESE 9 13 1009.9 - 2.8 - Partly cloudy 9 - - - -
24/01:30am 26.7 ESE 9 13 1009.9 - 2.8 - Partly cloudy 8 - - - -
24/01:00am 26.6 ESE 9 11 1010.1 - 2.8 - Partly cloudy 8 - - - -
24/12:30am 26.6 SE 10 13 1010.1 - 2.8 - Partly cloudy 8 - - - -
24/12:11am 26.7 SE 10 14 1010.2 - 2.8 - Partly cloudy 8 - - - -
24/12:00am 26.8 SE 10 12 1010.3 - 2.8 - Cloudy 7 - - - -
 
Date/Time
EST
Temp
°C
Wind Pressure Rain since
9am
mm
Weather Cloud Vis
km
Sea
Height
m
Swell
Dir  Spd
kts
Gust
kts
hPa Trend Height
m
Period
s
Dir
23/11:48pm 26.9 SE 8 11 1010.3 - 2.8 - Partly cloudy 7 - - - -
23/11:46pm 26.9 SE 8 11 1010.3 - 2.8 - Partly cloudy 7 - - - -
23/11:30pm 26.9 ESE 11 16 1010.5 - 2.8 - Partly cloudy 7 - - - -
23/11:28pm 26.9 ESE 10 16 1010.5 - 2.8 - Partly cloudy 7 - - - -
23/11:00pm 26.9 ESE 8 11 1010.7 - 2.8 - Partly cloudy 6 - - - -
23/10:47pm 27.0 ESE 9 13 1010.6 - 2.8 - Partly cloudy 6 - - - -
23/10:30pm 27.1 ESE 10 14 1010.7 - 2.8 - Partly cloudy 7 - - - -
23/10:13pm 27.0 ESE 9 13 1010.9 - 2.8 - Partly cloudy 6 - - - -
23/10:00pm 27.0 ESE 10 13 1010.7 - 2.8 - Partly cloudy 6 - - - -
23/09:52pm 27.0 SE 9 13 1010.7 - 2.8 - Partly cloudy 7 - - - -
23/09:30pm 26.9 ESE 10 13 1010.7 - 2.8 - Partly cloudy 6 - - - -
23/09:03pm 26.9 SE 7 9 1010.3 - 2.2 - Partly cloudy 5 - - - -
23/09:00pm 26.7 SE 7 9 1010.2 - 2.2 - Cloudy 6 - - - -
23/08:30pm 26.3 ESE 7 10 1010.1 - 2.2 - Partly cloudy 10 - - - -
23/08:02pm 25.8 ESE 14 20 1009.9 - 2.2 - Partly cloudy 9 - - - -
23/08:00pm 25.8 ESE 14 20 1009.9 - 2.2 - Partly cloudy 9 - - - -
23/07:42pm 26.3 ESE 9 21 1009.9 - 1.6 - Partly cloudy 5 - - - -
23/07:30pm 27.0 ESE 7 9 1009.6 - 1.4 - Partly cloudy 7 - - - -
23/07:12pm 26.9 SE 9 12 1009.5 - 1.4 - Partly cloudy 6 - - - -
23/07:06pm 26.8 SE 9 11 1009.4 - 1.4 - Partly cloudy 6 - - - -
23/07:00pm 26.9 SE 10 15 1009.3 - 1.4 - Partly cloudy 5 - - - -
23/06:50pm 27.1 ESE 12 17 1009.2 - 1.2 - Partly cloudy 3 - - - -
23/06:44pm 27.7 SE 13 17 1009.2 - 0.4 - Partly cloudy 5 - - - -
23/06:30pm 28.0 ESE 11 14 1008.8 - 0.0 - Partly cloudy 9 - - - -
23/06:00pm 28.1 ESE 13 18 1008.4 - 0.0 - Cloudy 9 - - - -
23/05:30pm 28.3 ESE 14 21 1008.0 - 0.0 - Partly cloudy 10 - - - -
23/05:00pm 28.6 ESE 12 18 1007.9 - 0.0 - Partly cloudy 10 - - - -
23/04:30pm 28.9 ESE 13 20 1007.8 - 0.0 - Partly cloudy 10 - - - -
23/04:00pm 29.1 ESE 15 22 1007.7 - 0.0 - Cloudy 10 - - - -
23/03:30pm 29.2 ESE 17 24 1007.6 - 0.0 - Partly cloudy 10 - - - -
23/03:00pm 29.9 ESE 14 21 1007.8 - 0.0 - Mostly cloudy 10 - - - -

Other Formats:

Comma delimited format used in spreadsheet applications
http://www.bom.gov.au/fwo/IDQ60701/IDQ60701.94174.axf

JavaScript Object Notation format (JSON) in row-major order
http://www.bom.gov.au/fwo/IDQ60701/IDQ60701.94174.json